Sanborn, Minnesota
Current Conditions -  °F | °C
As of 11:33 AM on Friday 21 Nov 2014 (Local Time) from KMWM Reporting Station
Clear Clear  
Wind Chill: 14°   Ceiling: Unl
Heat Index: 27°   Visibility: 10mi
Dew Point: 19°   Wind: 17mph
Humidity: 74%   Direction: 180°S
Pressure: 30.03"   Gusts: 28mph
Location:  44.21°N, 95.13°W
Report Text: KMWM 211733Z AUTO 18015G24KT 10SM CLR M03/M07 A3003 RMK AO2
Loading
Personal Weather Stations






























Interactive Weather Map New forecast layout! Learn more

10-Day Weather Forecast

Advertisements
Track Severe Weather on mobile